Time;durP1;ratioP1;P1;durP2;ratioP2;P2;SDS_P1;SDS_P2;PMS_P1;PMS_P2;Temp;Humidity;BMP_temperature;BMP_pressure;BME280_temperature;BME280_humidity;BME280_pressure;Samples;Min_cycle;Max_cycle;Signal;HPM_P1;HPM_P2
2024/04/17 00:01:33;;;;;;;;;10.00;6.00;;;;;;;;6491060;46;8939;-63
2024/04/17 00:07:35;;;;;;;;;6.00;6.00;;;;;;;;6491272;39;8970;-63
2024/04/17 00:13:38;;;;;;;;;5.33;5.33;;;;;;;;6490874;39;9688;-63
2024/04/17 00:19:39;;;;;;;;;6.00;6.00;;;;;;;;6491279;39;8883;-65
2024/04/17 00:25:44;;;;;;;;;10.33;7.33;;;;;;;;6491248;31;8904;-62
2024/04/17 00:31:45;;;;;;;;;8.67;8.00;;;;;;;;6491302;39;8903;-62
2024/04/17 00:37:47;;;;;;;;;12.00;10.00;;;;;;;;6490504;46;8853;-63
2024/04/17 00:43:51;;;;;;;;;7.67;7.00;;;;;;;;6491518;39;8863;-63
2024/04/17 00:49:52;;;;;;;;;8.50;8.00;;;;;;;;6491507;39;9040;-63
2024/04/17 00:55:56;;;;;;;;;8.67;8.67;;;;;;;;6490488;46;9018;-62
2024/04/17 01:01:58;;;;;;;;;10.00;10.00;;;;;;;;6490699;39;9524;-62
2024/04/17 01:08:03;;;;;;;;;12.67;9.33;;;;;;;;6489748;39;9709;-63
2024/04/17 01:14:04;;;;;;;;;9.00;6.00;;;;;;;;6491238;39;9584;-64
2024/04/17 01:20:09;;;;;;;;;7.67;7.00;;;;;;;;6491505;31;8923;-63
2024/04/17 01:26:11;;;;;;;;;10.00;8.00;;;;;;;;6489878;39;8871;-62
2024/04/17 01:32:13;;;;;;;;;7.00;4.67;;;;;;;;6490134;39;9045;-63
2024/04/17 01:38:14;;;;;;;;;9.00;6.33;;;;;;;;6490287;31;8872;-63
2024/04/17 01:44:16;;;;;;;;;6.00;6.00;;;;;;;;6488713;39;8872;-63
2024/04/17 01:50:29;;;;;;;;;6.00;6.00;;;;;;;;6490617;39;9029;-62
2024/04/17 01:56:33;;;;;;;;;9.00;6.00;;;;;;;;6490396;31;8971;-63
2024/04/17 02:02:36;;;;;;;;;8.00;6.00;;;;;;;;6491038;39;8873;-63
2024/04/17 02:08:38;;;;;;;;;7.00;6.00;;;;;;;;6491181;39;8961;-64
2024/04/17 02:14:40;;;;;;;;;4.33;4.33;;;;;;;;6489667;47;8969;-64
2024/04/17 02:20:41;;;;;;;;;11.67;8.67;;;;;;;;6490559;39;8891;-61
2024/04/17 02:26:44;;;;;;;;;7.33;7.33;;;;;;;;6490774;39;8912;-62
2024/04/17 02:32:45;;;;;;;;;9.00;6.67;;;;;;;;6489028;47;8894;-64
2024/04/17 02:38:47;;;;;;;;;12.33;7.33;;;;;;;;6490767;46;8988;-62
2024/04/17 02:44:51;;;;;;;;;10.00;7.33;;;;;;;;6492728;31;8866;-61
2024/04/17 02:50:52;;;;;;;;;7.00;7.00;;;;;;;;6492647;39;8929;-63
2024/04/17 02:56:56;;;;;;;;;10.33;9.00;;;;;;;;6491253;46;9079;-64
2024/04/17 03:03:00;;;;;;;;;9.00;9.00;;;;;;;;6493080;31;9031;-64
2024/04/17 03:09:04;;;;;;;;;10.33;10.33;;;;;;;;6490789;39;8927;-63
2024/04/17 03:15:07;;;;;;;;;9.00;8.00;;;;;;;;6491385;46;8988;-64
2024/04/17 03:21:10;;;;;;;;;9.00;7.33;;;;;;;;6491509;46;9018;-63
2024/04/17 03:27:12;;;;;;;;;11.00;11.00;;;;;;;;6490194;46;8912;-62
2024/04/17 03:33:14;;;;;;;;;8.67;8.67;;;;;;;;6490093;46;8929;-63
2024/04/17 03:39:17;;;;;;;;;13.00;8.33;;;;;;;;6490701;31;8889;-63
2024/04/17 03:45:19;;;;;;;;;6.33;6.00;;;;;;;;6491031;46;8990;-63
2024/04/17 03:51:25;;;;;;;;;9.67;7.33;;;;;;;;6491110;39;8991;-63
2024/04/17 03:57:27;;;;;;;;;11.67;10.00;;;;;;;;6491090;31;9015;-63
2024/04/17 04:03:30;;;;;;;;;7.33;6.67;;;;;;;;6472952;39;9008;-71
2024/04/17 04:09:40;;;;;;;;;10.00;8.67;;;;;;;;6492820;46;8992;-71
2024/04/17 04:15:42;;;;;;;;;9.00;9.00;;;;;;;;6492326;39;8984;-72
2024/04/17 04:21:56;;;;;;;;;11.00;10.00;;;;;;;;6493524;39;9550;-72
2024/04/17 04:28:02;;;;;;;;;11.00;8.00;;;;;;;;6493121;39;9572;-72
2024/04/17 04:34:03;;;;;;;;;12.33;12.00;;;;;;;;6490446;39;8940;-72
2024/04/17 04:40:25;;;;;;;;;11.33;11.33;;;;;;;;6491928;46;8991;-71
2024/04/17 04:46:28;;;;;;;;;10.00;10.00;;;;;;;;6492663;46;8955;-72
2024/04/17 04:52:46;;;;;;;;;8.67;7.67;;;;;;;;6491771;39;8976;-72
2024/04/17 04:58:49;;;;;;;;;10.00;8.00;;;;;;;;6493485;39;8838;-71
2024/04/17 05:04:54;;;;;;;;;10.33;8.33;;;;;;;;6491052;31;9085;-71
2024/04/17 05:10:58;;;;;;;;;10.00;9.00;;;;;;;;6491079;46;9048;-72
2024/04/17 05:17:05;;;;;;;;;6.00;6.00;;;;;;;;6491476;39;8907;-73
2024/04/17 05:23:11;;;;;;;;;5.33;4.67;;;;;;;;6491776;39;8867;-68
2024/04/17 05:29:19;;;;;;;;;5.00;5.00;;;;;;;;6491487;39;8908;-68
2024/04/17 05:35:24;;;;;;;;;7.00;6.75;;;;;;;;6491320;46;8864;-67
2024/04/17 05:41:42;;;;;;;;;8.67;8.00;;;;;;;;6490603;46;8901;-69
2024/04/17 05:47:44;;;;;;;;;8.67;7.67;;;;;;;;6490646;46;8966;-68
2024/04/17 05:53:54;;;;;;;;;10.67;7.67;;;;;;;;6491527;31;8898;-66
2024/04/17 06:00:01;;;;;;;;;12.00;11.00;;;;;;;;6492016;31;8893;-67
2024/04/17 06:06:08;;;;;;;;;9.33;9.33;;;;;;;;6489820;39;9641;-67
2024/04/17 06:12:11;;;;;;;;;12.50;9.50;;;;;;;;6490266;39;8918;-69
2024/04/17 06:18:24;;;;;;;;;8.00;8.00;;;;;;;;6490866;31;9127;-69
2024/04/17 06:24:33;;;;;;;;;6.00;6.00;;;;;;;;6490636;39;8886;-69
2024/04/17 06:30:37;;;;;;;;;10.00;9.75;;;;;;;;6486758;47;8933;-68
2024/04/17 06:36:47;;;;;;;;;10.50;10.50;;;;;;;;6487266;47;8923;-68
2024/04/17 06:42:52;;;;;;;;;8.50;7.50;;;;;;;;6489357;39;9009;-68
2024/04/17 06:49:00;;;;;;;;;9.75;8.00;;;;;;;;6488676;39;8907;-69
2024/04/17 06:55:07;;;;;;;;;11.50;8.75;;;;;;;;6489479;47;9022;-68
2024/04/17 07:01:14;;;;;;;;;9.25;7.75;;;;;;;;6489023;39;9125;-67
2024/04/17 07:07:18;;;;;;;;;9.00;6.00;;;;;;;;6489218;31;8933;-68
2024/04/17 07:13:21;;;;;;;;;9.50;8.75;;;;;;;;6489072;47;8963;-68
2024/04/17 07:19:24;;;;;;;;;11.00;8.00;;;;;;;;6489598;39;9060;-68
2024/04/17 07:25:35;;;;;;;;;8.25;8.00;;;;;;;;6490318;46;9046;-69
2024/04/17 07:31:40;;;;;;;;;10.75;10.00;;;;;;;;6486712;46;9024;-68
2024/04/17 07:37:46;;;;;;;;;13.25;10.25;;;;;;;;6490471;46;10120;-69
2024/04/17 07:43:52;;;;;;;;;9.00;9.00;;;;;;;;6491778;31;9033;-68
2024/04/17 07:50:12;;;;;;;;;10.00;10.00;;;;;;;;6491105;39;9059;-68
2024/04/17 07:56:17;;;;;;;;;10.00;9.50;;;;;;;;6490637;39;9040;-70
2024/04/17 08:02:21;;;;;;;;;9.50;8.75;;;;;;;;6489312;39;8973;-69
2024/04/17 08:08:24;;;;;;;;;11.50;9.50;;;;;;;;6490458;31;9056;-71
2024/04/17 08:14:26;;;;;;;;;9.00;9.00;;;;;;;;6489224;46;8972;-69
2024/04/17 08:20:35;;;;;;;;;10.00;8.00;;;;;;;;6489221;46;8968;-68
2024/04/17 08:26:38;;;;;;;;;10.33;10.00;;;;;;;;6491689;39;8934;-68
2024/04/17 08:32:43;;;;;;;;;18.67;17.00;;;;;;;;6486494;46;8966;-70
2024/04/17 08:38:55;;;;;;;;;6.00;6.00;;;;;;;;6491346;39;8932;-69
2024/04/17 08:45:09;;;;;;;;;8.67;7.00;;;;;;;;6490499;39;9682;-69
2024/04/17 08:51:20;;;;;;;;;8.67;6.00;;;;;;;;6491084;39;8964;-68
2024/04/17 08:57:28;;;;;;;;;6.00;6.00;;;;;;;;6490054;31;8947;-69
2024/04/17 09:03:37;;;;;;;;;8.67;7.00;;;;;;;;6490839;39;8987;-69
2024/04/17 09:09:48;;;;;;;;;10.67;9.00;;;;;;;;6489991;39;8969;-70
2024/04/17 09:15:50;;;;;;;;;11.00;9.75;;;;;;;;6489803;31;9032;-70
2024/04/17 09:21:55;;;;;;;;;9.00;9.00;;;;;;;;6534724;36;8915;-70
2024/04/17 09:27:58;;;;;;;;;14.75;10.75;;;;;;;;6484945;39;9576;-69
2024/04/17 09:34:02;;;;;;;;;13.50;12.25;;;;;;;;6483780;39;8983;-69
2024/04/17 09:40:11;;;;;;;;;11.00;10.50;;;;;;;;6483039;39;8946;-68
2024/04/17 09:46:21;;;;;;;;;14.00;13.00;;;;;;;;6483256;39;8927;-69
2024/04/17 09:52:29;;;;;;;;;11.75;10.25;;;;;;;;6479426;31;8967;-69
2024/04/17 09:58:50;;;;;;;;;13.25;12.50;;;;;;;;6482113;39;8930;-70
2024/04/17 10:05:01;;;;;;;;;14.50;14.00;;;;;;;;6482430;46;8974;-68
2024/04/17 10:11:09;;;;;;;;;18.00;16.00;;;;;;;;6483923;39;8959;-68
2024/04/17 10:17:40;;;;;;;;;18.75;17.50;;;;;;;;6485918;39;9519;-72
2024/04/17 10:24:11;;;;;;;;;11.00;11.00;;;;;;;;6486166;46;8939;-71
2024/04/17 10:30:15;;;;;;;;;18.75;14.75;;;;;;;;6485144;39;9000;-63
2024/04/17 10:36:22;;;;;;;;;14.00;14.00;;;;;;;;6486175;39;8994;-62
2024/04/17 10:42:35;;;;;;;;;24.00;20.75;;;;;;;;6485683;39;8925;-63
2024/04/17 10:48:48;;;;;;;;;18.25;18.25;;;;;;;;6486906;31;8920;-62
2024/04/17 10:55:01;;;;;;;;;16.75;15.25;;;;;;;;6482144;39;9004;-62
2024/04/17 11:01:05;;;;;;;;;14.50;13.25;;;;;;;;6486788;39;8936;-65
2024/04/17 11:07:09;;;;;;;;;16.33;16.33;;;;;;;;6488327;39;9558;-62
2024/04/17 11:13:18;;;;;;;;;19.67;17.33;;;;;;;;6487121;39;9232;-63
2024/04/17 11:19:37;;;;;;;;;17.00;15.33;;;;;;;;6486478;31;8929;-63
2024/04/17 11:25:46;;;;;;;;;19.67;17.33;;;;;;;;6486201;39;8917;-64
2024/04/17 11:31:48;;;;;;;;;22.33;20.00;;;;;;;;6486831;39;8951;-63
2024/04/17 11:37:58;;;;;;;;;21.33;19.67;;;;;;;;6487963;31;8982;-63
2024/04/17 11:44:06;;;;;;;;;20.00;19.00;;;;;;;;6486153;39;8899;-65
2024/04/17 11:50:12;;;;;;;;;29.00;27.00;;;;;;;;6485374;39;9219;-65
2024/04/17 11:56:16;;;;;;;;;17.00;15.50;;;;;;;;6481563;31;8978;-62
2024/04/17 12:02:17;;;;;;;;;20.67;19.33;;;;;;;;6485093;39;9080;-64
2024/04/17 12:08:27;;;;;;;;;16.33;14.67;;;;;;;;6486595;46;8951;-63
2024/04/17 12:14:29;;;;;;;;;21.33;15.67;;;;;;;;6486606;46;8958;-64
2024/04/17 12:20:35;;;;;;;;;16.33;15.67;;;;;;;;6486663;46;9059;-63
2024/04/17 12:26:50;;;;;;;;;23.00;18.00;;;;;;;;6533495;36;8941;-63
2024/04/17 12:32:57;;;;;;;;;11.67;10.00;;;;;;;;6485831;39;8963;-62
2024/04/17 12:39:06;;;;;;;;;21.00;21.00;;;;;;;;6486324;31;8915;-63
2024/04/17 12:45:10;;;;;;;;;21.00;17.33;;;;;;;;6487543;39;9039;-63
2024/04/17 12:51:14;;;;;;;;;23.67;20.00;;;;;;;;6487494;31;9074;-61
2024/04/17 12:57:20;;;;;;;;;28.67;23.67;;;;;;;;6486705;46;8977;-63
2024/04/17 13:03:24;;;;;;;;;22.67;22.67;;;;;;;;6485978;39;9005;-65
2024/04/17 13:09:27;;;;;;;;;23.33;20.00;;;;;;;;6482401;39;8897;-62
2024/04/17 13:15:35;;;;;;;;;26.50;24.50;;;;;;;;5114218;36;10003240;-64
2024/04/17 13:21:41;;;;;;;;;24.67;21.67;;;;;;;;6484482;39;8951;-63
2024/04/17 13:27:53;;;;;;;;;23.00;20.33;;;;;;;;6484998;39;9066;-61
2024/04/17 13:33:56;;;;;;;;;31.00;29.00;;;;;;;;6486111;31;9002;-62
2024/04/17 13:40:02;;;;;;;;;24.00;23.67;;;;;;;;6485461;46;8966;-62
2024/04/17 13:46:14;;;;;;;;;23.00;20.50;;;;;;;;6486044;46;8970;-63
2024/04/17 13:52:26;;;;;;;;;25.67;23.00;;;;;;;;6485471;39;8939;-64
2024/04/17 13:58:32;;;;;;;;;27.33;24.00;;;;;;;;6489418;39;9072;-62
2024/04/17 14:04:34;;;;;;;;;23.33;22.00;;;;;;;;6489547;31;9094;-64
2024/04/17 14:10:38;;;;;;;;;24.00;22.00;;;;;;;;6489445;47;8928;-62
2024/04/17 14:16:40;;;;;;;;;23.33;22.00;;;;;;;;6490002;39;8869;-62
2024/04/17 14:22:42;;;;;;;;;21.67;20.67;;;;;;;;6489439;31;8892;-63
2024/04/17 14:28:53;;;;;;;;;22.33;22.33;;;;;;;;6489286;47;8870;-65
2024/04/17 14:34:59;;;;;;;;;22.67;20.67;;;;;;;;6491137;39;9063;-62
2024/04/17 14:41:04;;;;;;;;;22.33;20.67;;;;;;;;6490708;31;9055;-64
2024/04/17 14:47:10;;;;;;;;;29.67;26.67;;;;;;;;6491901;31;9011;-62
2024/04/17 14:53:16;;;;;;;;;23.33;23.33;;;;;;;;6491622;46;8920;-63
2024/04/17 14:59:19;;;;;;;;;23.33;22.67;;;;;;;;6492144;39;8962;-63
2024/04/17 15:05:23;;;;;;;;;22.33;21.33;;;;;;;;6491061;46;8912;-64
2024/04/17 15:11:28;;;;;;;;;13.33;13.33;;;;;;;;6491496;31;9629;-64
2024/04/17 15:17:33;;;;;;;;;16.00;16.00;;;;;;;;6490906;46;8880;-61
2024/04/17 15:23:46;;;;;;;;;17.00;17.00;;;;;;;;6491772;46;8954;-63
2024/04/17 15:29:51;;;;;;;;;16.67;14.67;;;;;;;;6492072;39;8919;-63
2024/04/17 15:35:54;;;;;;;;;17.33;15.67;;;;;;;;6491078;46;8892;-63
2024/04/17 15:42:05;;;;;;;;;15.67;14.67;;;;;;;;6310281;46;10000157;-61
2024/04/17 15:48:10;;;;;;;;;14.67;13.00;;;;;;;;6490555;46;8919;-62
2024/04/17 15:54:17;;;;;;;;;7.00;7.00;;;;;;;;6490990;39;8950;-62
2024/04/17 16:00:24;;;;;;;;;16.67;16.67;;;;;;;;6490636;46;8912;-62
2024/04/17 16:06:26;;;;;;;;;8.00;8.00;;;;;;;;6492976;31;9031;-61
2024/04/17 16:12:30;;;;;;;;;11.33;10.00;;;;;;;;6491701;39;8978;-61
2024/04/17 16:18:38;;;;;;;;;11.33;11.33;;;;;;;;6492475;39;8915;-63
2024/04/17 16:24:48;;;;;;;;;12.33;11.00;;;;;;;;6491311;39;8900;-63
2024/04/17 16:30:49;;;;;;;;;15.00;14.00;;;;;;;;6491275;31;8947;-62
2024/04/17 16:36:54;;;;;;;;;13.00;10.33;;;;;;;;6491296;31;8872;-63
2024/04/17 16:42:56;;;;;;;;;14.67;14.67;;;;;;;;6491567;31;9495;-62
2024/04/17 16:48:59;;;;;;;;;17.00;17.00;;;;;;;;6491284;39;8856;-62
2024/04/17 16:55:09;;;;;;;;;19.00;19.00;;;;;;;;6490936;31;8950;-61
2024/04/17 17:01:15;;;;;;;;;27.50;19.75;;;;;;;;6491428;31;8911;-61
2024/04/17 17:07:22;;;;;;;;;19.75;19.50;;;;;;;;6491896;39;9762;-62
2024/04/17 17:13:29;;;;;;;;;22.00;22.00;;;;;;;;6490424;46;8865;-62
2024/04/17 17:19:34;;;;;;;;;22.75;21.75;;;;;;;;6490299;39;8964;-63
2024/04/17 17:25:38;;;;;;;;;26.25;25.00;;;;;;;;6490677;39;8880;-61
2024/04/17 17:31:46;;;;;;;;;24.50;23.00;;;;;;;;6490930;39;8936;-61
2024/04/17 17:37:49;;;;;;;;;26.00;23.50;;;;;;;;6490662;39;8972;-65
2024/04/17 17:43:54;;;;;;;;;26.75;23.50;;;;;;;;6489478;46;8912;-63
2024/04/17 17:49:57;;;;;;;;;24.25;24.25;;;;;;;;6489558;31;8921;-64
2024/04/17 17:56:06;;;;;;;;;27.50;24.50;;;;;;;;6489804;39;8959;-62
2024/04/17 18:02:18;;;;;;;;;23.25;21.50;;;;;;;;6490960;31;8897;-62
2024/04/17 18:08:24;;;;;;;;;18.25;14.75;;;;;;;;6490060;39;8881;-61
2024/04/17 18:14:29;;;;;;;;;15.75;14.75;;;;;;;;6490832;31;8865;-61
2024/04/17 18:20:35;;;;;;;;;10.75;9.75;;;;;;;;6490762;47;8832;-61
2024/04/17 18:26:39;;;;;;;;;8.75;8.75;;;;;;;;6490291;31;8912;-61
2024/04/17 18:32:42;;;;;;;;;4.50;4.00;;;;;;;;6490323;39;8908;-61
2024/04/17 18:38:46;;;;;;;;;8.50;6.75;;;;;;;;6489668;47;8958;-60
2024/04/17 18:44:50;;;;;;;;;4.00;4.00;;;;;;;;6488739;47;8877;-60
2024/04/17 18:50:56;;;;;;;;;4.00;4.00;;;;;;;;6489878;39;8928;-61
2024/04/17 18:57:02;;;;;;;;;2.00;2.00;;;;;;;;6489178;39;9729;-61
2024/04/17 19:03:04;;;;;;;;;7.00;6.50;;;;;;;;6489647;39;8909;-61
2024/04/17 19:09:10;;;;;;;;;6.00;3.50;;;;;;;;6489861;39;8888;-61
2024/04/17 19:15:22;;;;;;;;;4.50;4.50;;;;;;;;6489773;31;8915;-61
2024/04/17 19:21:27;;;;;;;;;3.00;3.00;;;;;;;;6490692;46;8864;-61
2024/04/17 19:27:39;;;;;;;;;3.75;3.75;;;;;;;;6491425;46;8888;-62
2024/04/17 19:33:55;;;;;;;;;5.25;5.25;;;;;;;;6492134;39;8852;-62
2024/04/17 19:40:00;;;;;;;;;6.75;6.00;;;;;;;;6490627;31;8922;-61
2024/04/17 19:46:08;;;;;;;;;5.50;5.00;;;;;;;;6490320;46;8973;-62
2024/04/17 19:52:14;;;;;;;;;1.50;1.00;;;;;;;;6491896;39;9426;-61
2024/04/17 19:58:17;;;;;;;;;2.50;2.50;;;;;;;;6491432;39;8816;-62
2024/04/17 20:04:19;;;;;;;;;3.00;3.00;;;;;;;;6491108;46;8941;-62
2024/04/17 20:10:22;;;;;;;;;4.25;4.25;;;;;;;;6490814;46;8959;-61
2024/04/17 20:16:24;;;;;;;;;4.00;4.00;;;;;;;;6492173;39;8876;-61
2024/04/17 20:22:29;;;;;;;;;6.50;4.00;;;;;;;;6490955;46;9005;-60
2024/04/17 20:28:33;;;;;;;;;3.00;3.00;;;;;;;;6491347;39;8899;-61
2024/04/17 20:34:50;;;;;;;;;3.00;3.00;;;;;;;;6491221;39;8896;-59
2024/04/17 20:40:54;;;;;;;;;5.75;5.75;;;;;;;;6489400;46;8954;-61
2024/04/17 20:46:58;;;;;;;;;3.75;3.75;;;;;;;;6490788;46;8884;-61
2024/04/17 20:53:03;;;;;;;;;7.00;7.00;;;;;;;;6490300;46;8981;-61
2024/04/17 20:59:12;;;;;;;;;6.75;6.00;;;;;;;;6492050;31;8912;-61
2024/04/17 21:05:16;;;;;;;;;7.75;7.25;;;;;;;;6490498;46;8900;-62
2024/04/17 21:11:21;;;;;;;;;11.00;9.50;;;;;;;;6490558;39;8891;-61
2024/04/17 21:17:24;;;;;;;;;12.25;9.25;;;;;;;;6489780;31;8938;-60
2024/04/17 21:23:29;;;;;;;;;7.75;7.75;;;;;;;;6490204;46;8914;-61
2024/04/17 21:29:34;;;;;;;;;7.50;7.50;;;;;;;;6490841;39;8904;-61
2024/04/17 21:35:43;;;;;;;;;10.25;10.25;;;;;;;;6490117;31;9014;-61
2024/04/17 21:41:46;;;;;;;;;9.50;9.00;;;;;;;;6489798;39;8875;-61
2024/04/17 21:47:51;;;;;;;;;11.00;11.00;;;;;;;;6491242;31;9620;-60
2024/04/17 21:53:56;;;;;;;;;16.25;11.50;;;;;;;;6490628;39;8908;-62
2024/04/17 21:59:58;;;;;;;;;11.25;10.00;;;;;;;;6491584;31;9047;-61
2024/04/17 22:06:04;;;;;;;;;15.00;11.00;;;;;;;;6491299;31;9058;-60
2024/04/17 22:12:10;;;;;;;;;6.25;6.25;;;;;;;;6490602;39;8883;-60
2024/04/17 22:18:17;;;;;;;;;11.25;11.25;;;;;;;;6490248;39;9055;-61
2024/04/17 22:24:21;;;;;;;;;11.25;11.25;;;;;;;;6490219;39;9554;-61
2024/04/17 22:30:26;;;;;;;;;10.00;9.75;;;;;;;;6489536;46;8962;-60
2024/04/17 22:36:28;;;;;;;;;10.50;9.50;;;;;;;;6490095;39;9503;-61
2024/04/17 22:42:32;;;;;;;;;10.00;8.25;;;;;;;;6490435;39;8938;-61
2024/04/17 22:48:34;;;;;;;;;11.25;11.25;;;;;;;;6489951;39;9806;-61
2024/04/17 22:54:43;;;;;;;;;9.00;7.25;;;;;;;;6501643;31;8923;-61
2024/04/17 23:00:47;;;;;;;;;7.00;7.00;;;;;;;;6491831;46;8927;-61
2024/04/17 23:06:51;;;;;;;;;7.00;6.75;;;;;;;;6491695;46;8907;-60
2024/04/17 23:13:11;;;;;;;;;8.00;7.50;;;;;;;;6492710;39;8931;-61
2024/04/17 23:19:12;;;;;;;;;6.00;6.00;;;;;;;;6492481;31;8966;-60
2024/04/17 23:25:15;;;;;;;;;6.00;6.00;;;;;;;;6490771;46;8910;-61
2024/04/17 23:31:21;;;;;;;;;6.00;6.00;;;;;;;;6492022;39;9550;-61
2024/04/17 23:37:22;;;;;;;;;9.50;9.50;;;;;;;;6491226;46;8871;-60
2024/04/17 23:43:29;;;;;;;;;12.50;10.75;;;;;;;;6491202;31;8998;-61
2024/04/17 23:49:32;;;;;;;;;11.75;11.75;;;;;;;;6491891;39;8923;-60
2024/04/17 23:55:34;;;;;;;;;8.50;8.00;;;;;;;;6491821;39;8920;-62
